sensor_id;sensor_type;location;lat;lon;timestamp;P1;durP1;ratioP1;P2;durP2;ratioP2
11090;SDS011;5599;52.210;21.046;2024-03-23T00:54:55;20.10;;;16.63;;
11090;SDS011;5599;52.210;21.046;2024-03-23T00:57:23;20.53;;;16.17;;
11090;SDS011;5599;52.210;21.046;2024-03-23T00:59:49;19.03;;;16.40;;
11090;SDS011;5599;52.210;21.046;2024-03-23T01:02:17;21.13;;;16.90;;
11090;SDS011;5599;52.210;21.046;2024-03-23T01:04:44;18.37;;;16.07;;
11090;SDS011;5599;52.210;21.046;2024-03-23T01:07:12;18.43;;;15.70;;
11090;SDS011;5599;52.210;21.046;2024-03-23T01:09:40;30.87;;;26.90;;
11090;SDS011;5599;52.210;21.046;2024-03-23T01:12:08;19.20;;;17.00;;
11090;SDS011;5599;52.210;21.046;2024-03-23T01:14:34;21.87;;;18.53;;
11090;SDS011;5599;52.210;21.046;2024-03-23T01:17:03;20.57;;;17.33;;
11090;SDS011;5599;52.210;21.046;2024-03-23T01:19:29;19.60;;;17.13;;
11090;SDS011;5599;52.210;21.046;2024-03-23T01:21:57;19.90;;;16.77;;
11090;SDS011;5599;52.210;21.046;2024-03-23T01:24:24;23.03;;;18.67;;
11090;SDS011;5599;52.210;21.046;2024-03-23T01:26:53;19.90;;;17.73;;
11090;SDS011;5599;52.210;21.046;2024-03-23T01:29:19;20.40;;;17.53;;
11090;SDS011;5599;52.210;21.046;2024-03-23T01:31:47;22.37;;;18.33;;
11090;SDS011;5599;52.210;21.046;2024-03-23T01:34:14;22.77;;;18.60;;
11090;SDS011;5599;52.210;21.046;2024-03-23T01:36:42;20.83;;;17.50;;
11090;SDS011;5599;52.210;21.046;2024-03-23T01:39:08;19.43;;;17.33;;
11090;SDS011;5599;52.210;21.046;2024-03-23T01:41:36;20.80;;;17.57;;
11090;SDS011;5599;52.210;21.046;2024-03-23T01:44:06;21.03;;;18.73;;
11090;SDS011;5599;52.210;21.046;2024-03-23T01:46:34;21.40;;;18.33;;
11090;SDS011;5599;52.210;21.046;2024-03-23T01:49:02;23.77;;;18.53;;
11090;SDS011;5599;52.210;21.046;2024-03-23T01:51:30;19.73;;;17.20;;
11090;SDS011;5599;52.210;21.046;2024-03-23T01:53:58;22.10;;;18.67;;
11090;SDS011;5599;52.210;21.046;2024-03-23T01:56:28;24.93;;;19.63;;
11090;SDS011;5599;52.210;21.046;2024-03-23T01:58:55;22.37;;;19.93;;
11090;SDS011;5599;52.210;21.046;2024-03-23T02:01:25;22.70;;;18.83;;
11090;SDS011;5599;52.210;21.046;2024-03-23T02:03:51;22.60;;;19.00;;
11090;SDS011;5599;52.210;21.046;2024-03-23T02:06:19;22.93;;;19.30;;
11090;SDS011;5599;52.210;21.046;2024-03-23T02:08:46;23.03;;;19.13;;
11090;SDS011;5599;52.210;21.046;2024-03-23T02:11:14;21.27;;;18.30;;
11090;SDS011;5599;52.210;21.046;2024-03-23T02:13:40;20.90;;;18.30;;
11090;SDS011;5599;52.210;21.046;2024-03-23T02:16:08;24.00;;;19.50;;
11090;SDS011;5599;52.210;21.046;2024-03-23T02:18:36;22.67;;;18.13;;
11090;SDS011;5599;52.210;21.046;2024-03-23T02:21:04;22.03;;;19.23;;
11090;SDS011;5599;52.210;21.046;2024-03-23T02:23:32;21.47;;;18.97;;
11090;SDS011;5599;52.210;21.046;2024-03-23T02:26:00;21.13;;;18.83;;
11090;SDS011;5599;52.210;21.046;2024-03-23T02:28:27;24.40;;;19.07;;
11090;SDS011;5599;52.210;21.046;2024-03-23T02:30:55;25.20;;;20.00;;
11090;SDS011;5599;52.210;21.046;2024-03-23T02:33:22;23.30;;;19.23;;
11090;SDS011;5599;52.210;21.046;2024-03-23T02:35:49;23.53;;;19.00;;
11090;SDS011;5599;52.210;21.046;2024-03-23T02:38:16;22.87;;;18.93;;
11090;SDS011;5599;52.210;21.046;2024-03-23T02:40:45;24.23;;;19.17;;
11090;SDS011;5599;52.210;21.046;2024-03-23T02:43:12;21.93;;;19.53;;
11090;SDS011;5599;52.210;21.046;2024-03-23T02:45:39;23.20;;;19.00;;
11090;SDS011;5599;52.210;21.046;2024-03-23T02:48:06;22.23;;;19.67;;
11090;SDS011;5599;52.210;21.046;2024-03-23T02:50:34;23.37;;;20.10;;
11090;SDS011;5599;52.210;21.046;2024-03-23T02:53:01;22.07;;;19.00;;
11090;SDS011;5599;52.210;21.046;2024-03-23T02:55:28;25.00;;;20.77;;
11090;SDS011;5599;52.210;21.046;2024-03-23T02:57:57;24.67;;;20.83;;
11090;SDS011;5599;52.210;21.046;2024-03-23T03:00:27;23.00;;;20.50;;
11090;SDS011;5599;52.210;21.046;2024-03-23T03:02:54;24.10;;;21.47;;
11090;SDS011;5599;52.210;21.046;2024-03-23T03:05:22;22.90;;;19.53;;
11090;SDS011;5599;52.210;21.046;2024-03-23T03:07:49;23.57;;;20.13;;
11090;SDS011;5599;52.210;21.046;2024-03-23T03:10:16;22.57;;;19.93;;
11090;SDS011;5599;52.210;21.046;2024-03-23T03:12:43;25.30;;;20.40;;
11090;SDS011;5599;52.210;21.046;2024-03-23T03:15:12;24.63;;;19.80;;
11090;SDS011;5599;52.210;21.046;2024-03-23T03:17:39;25.30;;;19.80;;
11090;SDS011;5599;52.210;21.046;2024-03-23T03:20:07;23.60;;;20.60;;
11090;SDS011;5599;52.210;21.046;2024-03-23T03:22:39;24.10;;;20.63;;
11090;SDS011;5599;52.210;21.046;2024-03-23T03:25:06;22.23;;;19.70;;
11090;SDS011;5599;52.210;21.046;2024-03-23T03:27:33;23.47;;;20.27;;
11090;SDS011;5599;52.210;21.046;2024-03-23T03:30:01;24.40;;;20.10;;
11090;SDS011;5599;52.210;21.046;2024-03-23T03:32:33;23.43;;;20.03;;
11090;SDS011;5599;52.210;21.046;2024-03-23T03:35:01;24.57;;;21.07;;
11090;SDS011;5599;52.210;21.046;2024-03-23T03:37:28;22.60;;;20.20;;
11090;SDS011;5599;52.210;21.046;2024-03-23T03:39:56;23.97;;;20.60;;
11090;SDS011;5599;52.210;21.046;2024-03-23T03:42:22;23.90;;;19.73;;
11090;SDS011;5599;52.210;21.046;2024-03-23T03:44:50;23.40;;;19.40;;
11090;SDS011;5599;52.210;21.046;2024-03-23T03:47:19;23.87;;;19.50;;
11090;SDS011;5599;52.210;21.046;2024-03-23T03:49:48;21.67;;;18.67;;
11090;SDS011;5599;52.210;21.046;2024-03-23T03:52:15;22.17;;;19.07;;
11090;SDS011;5599;52.210;21.046;2024-03-23T03:54:43;23.50;;;20.03;;
11090;SDS011;5599;52.210;21.046;2024-03-23T03:57:10;22.10;;;19.23;;
11090;SDS011;5599;52.210;21.046;2024-03-23T03:59:37;22.83;;;18.50;;
11090;SDS011;5599;52.210;21.046;2024-03-23T04:02:04;20.83;;;18.63;;
11090;SDS011;5599;52.210;21.046;2024-03-23T04:04:32;21.80;;;19.03;;
11090;SDS011;5599;52.210;21.046;2024-03-23T04:07:00;21.87;;;18.73;;
11090;SDS011;5599;52.210;21.046;2024-03-23T04:09:31;20.90;;;18.67;;
11090;SDS011;5599;52.210;21.046;2024-03-23T04:11:57;21.40;;;18.53;;
11090;SDS011;5599;52.210;21.046;2024-03-23T04:14:25;19.43;;;17.30;;
11090;SDS011;5599;52.210;21.046;2024-03-23T04:16:52;20.30;;;17.50;;
11090;SDS011;5599;52.210;21.046;2024-03-23T04:19:21;21.33;;;19.07;;
11090;SDS011;5599;52.210;21.046;2024-03-23T04:21:47;20.70;;;18.40;;
11090;SDS011;5599;52.210;21.046;2024-03-23T04:24:16;19.10;;;17.10;;
11090;SDS011;5599;52.210;21.046;2024-03-23T04:26:45;20.53;;;18.33;;
11090;SDS011;5599;52.210;21.046;2024-03-23T04:29:13;20.60;;;17.63;;
11090;SDS011;5599;52.210;21.046;2024-03-23T04:31:40;20.00;;;17.77;;
11090;SDS011;5599;52.210;21.046;2024-03-23T04:34:08;23.23;;;18.30;;
11090;SDS011;5599;52.210;21.046;2024-03-23T04:36:34;20.77;;;17.53;;
11090;SDS011;5599;52.210;21.046;2024-03-23T04:39:02;19.03;;;17.03;;
11090;SDS011;5599;52.210;21.046;2024-03-23T04:41:32;19.63;;;17.63;;
11090;SDS011;5599;52.210;21.046;2024-03-23T04:43:59;20.20;;;17.87;;
11090;SDS011;5599;52.210;21.046;2024-03-23T04:46:27;20.30;;;17.93;;
11090;SDS011;5599;52.210;21.046;2024-03-23T04:48:55;20.20;;;18.03;;
11090;SDS011;5599;52.210;21.046;2024-03-23T04:51:23;20.03;;;17.90;;
11090;SDS011;5599;52.210;21.046;2024-03-23T04:53:52;21.07;;;18.77;;
11090;SDS011;5599;52.210;21.046;2024-03-23T04:56:19;21.57;;;19.03;;
11090;SDS011;5599;52.210;21.046;2024-03-23T04:58:47;23.47;;;20.20;;
11090;SDS011;5599;52.210;21.046;2024-03-23T05:01:15;20.53;;;17.40;;
11090;SDS011;5599;52.210;21.046;2024-03-23T05:03:42;21.93;;;19.33;;
11090;SDS011;5599;52.210;21.046;2024-03-23T05:06:10;23.40;;;19.50;;
11090;SDS011;5599;52.210;21.046;2024-03-23T05:08:36;21.90;;;19.53;;
11090;SDS011;5599;52.210;21.046;2024-03-23T05:11:04;21.97;;;19.57;;
11090;SDS011;5599;52.210;21.046;2024-03-23T05:13:32;22.50;;;20.10;;
11090;SDS011;5599;52.210;21.046;2024-03-23T05:16:01;22.27;;;19.33;;
11090;SDS011;5599;52.210;21.046;2024-03-23T05:18:28;22.80;;;20.27;;
11090;SDS011;5599;52.210;21.046;2024-03-23T05:20:56;23.37;;;19.70;;
11090;SDS011;5599;52.210;21.046;2024-03-23T05:23:23;23.17;;;20.77;;
11090;SDS011;5599;52.210;21.046;2024-03-23T05:25:51;22.57;;;20.03;;
11090;SDS011;5599;52.210;21.046;2024-03-23T05:28:19;24.93;;;20.47;;
11090;SDS011;5599;52.210;21.046;2024-03-23T05:30:50;24.50;;;21.90;;
11090;SDS011;5599;52.210;21.046;2024-03-23T05:33:19;26.07;;;21.27;;
11090;SDS011;5599;52.210;21.046;2024-03-23T05:35:47;24.50;;;21.10;;
11090;SDS011;5599;52.210;21.046;2024-03-23T05:38:22;23.23;;;20.87;;
11090;SDS011;5599;52.210;21.046;2024-03-23T05:40:53;24.60;;;21.53;;
11090;SDS011;5599;52.210;21.046;2024-03-23T05:43:20;26.13;;;22.57;;
11090;SDS011;5599;52.210;21.046;2024-03-23T05:45:52;23.83;;;21.13;;
11090;SDS011;5599;52.210;21.046;2024-03-23T05:48:21;23.47;;;20.83;;
11090;SDS011;5599;52.210;21.046;2024-03-23T05:50:49;24.17;;;21.57;;
11090;SDS011;5599;52.210;21.046;2024-03-23T05:53:16;26.27;;;22.53;;
11090;SDS011;5599;52.210;21.046;2024-03-23T05:55:44;25.47;;;22.87;;
11090;SDS011;5599;52.210;21.046;2024-03-23T05:58:14;26.70;;;23.00;;
11090;SDS011;5599;52.210;21.046;2024-03-23T06:00:42;24.13;;;20.73;;
11090;SDS011;5599;52.210;21.046;2024-03-23T06:03:09;27.43;;;24.17;;
11090;SDS011;5599;52.210;21.046;2024-03-23T06:05:39;25.63;;;21.53;;
11090;SDS011;5599;52.210;21.046;2024-03-23T06:08:06;28.13;;;22.33;;
11090;SDS011;5599;52.210;21.046;2024-03-23T06:10:35;28.17;;;22.60;;
11090;SDS011;5599;52.210;21.046;2024-03-23T06:13:02;26.87;;;23.20;;
11090;SDS011;5599;52.210;21.046;2024-03-23T06:15:29;24.70;;;21.63;;
11090;SDS011;5599;52.210;21.046;2024-03-23T06:17:57;25.67;;;21.07;;
11090;SDS011;5599;52.210;21.046;2024-03-23T06:20:25;26.10;;;22.00;;
11090;SDS011;5599;52.210;21.046;2024-03-23T06:22:53;26.77;;;23.17;;
11090;SDS011;5599;52.210;21.046;2024-03-23T06:25:21;24.57;;;22.00;;
11090;SDS011;5599;52.210;21.046;2024-03-23T06:27:48;24.67;;;21.27;;
11090;SDS011;5599;52.210;21.046;2024-03-23T06:30:15;27.10;;;22.47;;
11090;SDS011;5599;52.210;21.046;2024-03-23T06:32:42;25.13;;;21.93;;
11090;SDS011;5599;52.210;21.046;2024-03-23T06:35:10;24.43;;;21.40;;
11090;SDS011;5599;52.210;21.046;2024-03-23T06:37:37;25.17;;;22.10;;
11090;SDS011;5599;52.210;21.046;2024-03-23T06:40:08;26.80;;;21.67;;
11090;SDS011;5599;52.210;21.046;2024-03-23T06:42:36;24.07;;;20.73;;
11090;SDS011;5599;52.210;21.046;2024-03-23T06:45:04;22.90;;;20.17;;
11090;SDS011;5599;52.210;21.046;2024-03-23T06:47:31;25.20;;;21.83;;
11090;SDS011;5599;52.210;21.046;2024-03-23T06:49:59;25.27;;;19.90;;
11090;SDS011;5599;52.210;21.046;2024-03-23T06:52:29;24.00;;;20.80;;
11090;SDS011;5599;52.210;21.046;2024-03-23T06:54:57;22.33;;;19.60;;
11090;SDS011;5599;52.210;21.046;2024-03-23T06:57:25;24.07;;;19.93;;
11090;SDS011;5599;52.210;21.046;2024-03-23T06:59:53;23.57;;;20.57;;
11090;SDS011;5599;52.210;21.046;2024-03-23T07:02:20;25.87;;;20.10;;
11090;SDS011;5599;52.210;21.046;2024-03-23T07:04:47;23.60;;;19.13;;
11090;SDS011;5599;52.210;21.046;2024-03-23T07:07:14;28.80;;;19.80;;
11090;SDS011;5599;52.210;21.046;2024-03-23T07:09:42;22.07;;;19.67;;
11090;SDS011;5599;52.210;21.046;2024-03-23T07:12:08;25.40;;;20.77;;
11090;SDS011;5599;52.210;21.046;2024-03-23T07:14:38;23.30;;;20.80;;
11090;SDS011;5599;52.210;21.046;2024-03-23T07:17:04;22.73;;;20.13;;
11090;SDS011;5599;52.210;21.046;2024-03-23T07:19:32;24.33;;;19.63;;
11090;SDS011;5599;52.210;21.046;2024-03-23T07:21:59;25.40;;;19.93;;
11090;SDS011;5599;52.210;21.046;2024-03-23T07:24:26;23.97;;;19.60;;
11090;SDS011;5599;52.210;21.046;2024-03-23T07:26:53;22.80;;;20.10;;
11090;SDS011;5599;52.210;21.046;2024-03-23T07:29:23;25.20;;;20.27;;
11090;SDS011;5599;52.210;21.046;2024-03-23T07:31:51;23.57;;;20.80;;
11090;SDS011;5599;52.210;21.046;2024-03-23T07:34:20;22.83;;;19.37;;
11090;SDS011;5599;52.210;21.046;2024-03-23T07:36:47;21.70;;;18.33;;
11090;SDS011;5599;52.210;21.046;2024-03-23T07:39:15;23.30;;;18.90;;
11090;SDS011;5599;52.210;21.046;2024-03-23T07:41:44;21.53;;;19.00;;
11090;SDS011;5599;52.210;21.046;2024-03-23T07:44:12;24.17;;;19.57;;
11090;SDS011;5599;52.210;21.046;2024-03-23T07:46:39;23.77;;;19.87;;
11090;SDS011;5599;52.210;21.046;2024-03-23T07:49:08;22.17;;;17.60;;
11090;SDS011;5599;52.210;21.046;2024-03-23T07:51:35;20.80;;;18.60;;
11090;SDS011;5599;52.210;21.046;2024-03-23T07:54:05;20.03;;;17.90;;
11090;SDS011;5599;52.210;21.046;2024-03-23T07:56:31;26.13;;;20.80;;
11090;SDS011;5599;52.210;21.046;2024-03-23T07:58:59;23.30;;;19.37;;
11090;SDS011;5599;52.210;21.046;2024-03-23T08:01:26;25.23;;;19.20;;
11090;SDS011;5599;52.210;21.046;2024-03-23T08:03:54;22.97;;;19.97;;
11090;SDS011;5599;52.210;21.046;2024-03-23T08:06:22;25.27;;;20.27;;
11090;SDS011;5599;52.210;21.046;2024-03-23T08:08:51;23.50;;;19.53;;
11090;SDS011;5599;52.210;21.046;2024-03-23T08:11:25;24.70;;;20.67;;
11090;SDS011;5599;52.210;21.046;2024-03-23T08:13:53;26.20;;;19.43;;
11090;SDS011;5599;52.210;21.046;2024-03-23T08:16:20;28.37;;;20.27;;
11090;SDS011;5599;52.210;21.046;2024-03-23T08:18:48;22.03;;;18.97;;
11090;SDS011;5599;52.210;21.046;2024-03-23T08:21:17;21.70;;;18.40;;
11090;SDS011;5599;52.210;21.046;2024-03-23T08:23:47;23.47;;;19.10;;
11090;SDS011;5599;52.210;21.046;2024-03-23T08:26:14;22.20;;;19.57;;
11090;SDS011;5599;52.210;21.046;2024-03-23T08:28:43;22.70;;;19.23;;
11090;SDS011;5599;52.210;21.046;2024-03-23T08:31:10;25.90;;;19.20;;
11090;SDS011;5599;52.210;21.046;2024-03-23T08:33:40;21.53;;;18.33;;
11090;SDS011;5599;52.210;21.046;2024-03-23T08:36:09;24.07;;;17.53;;
11090;SDS011;5599;52.210;21.046;2024-03-23T08:38:38;20.63;;;18.43;;
11090;SDS011;5599;52.210;21.046;2024-03-23T08:41:06;21.43;;;17.83;;
11090;SDS011;5599;52.210;21.046;2024-03-23T08:43:35;22.40;;;18.47;;
11090;SDS011;5599;52.210;21.046;2024-03-23T08:46:03;20.57;;;17.33;;
11090;SDS011;5599;52.210;21.046;2024-03-23T08:48:32;20.30;;;17.60;;
11090;SDS011;5599;52.210;21.046;2024-03-23T08:51:00;19.77;;;16.73;;
11090;SDS011;5599;52.210;21.046;2024-03-23T08:53:28;19.83;;;16.77;;
11090;SDS011;5599;52.210;21.046;2024-03-23T08:55:55;16.83;;;15.10;;
11090;SDS011;5599;52.210;21.046;2024-03-23T08:58:25;17.20;;;15.43;;
11090;SDS011;5599;52.210;21.046;2024-03-23T09:00:54;16.60;;;14.90;;
11090;SDS011;5599;52.210;21.046;2024-03-23T09:03:22;16.17;;;14.53;;
11090;SDS011;5599;52.210;21.046;2024-03-23T09:05:50;16.93;;;14.73;;
11090;SDS011;5599;52.210;21.046;2024-03-23T09:08:18;17.73;;;15.73;;
11090;SDS011;5599;52.210;21.046;2024-03-23T09:10:45;17.13;;;15.17;;
11090;SDS011;5599;52.210;21.046;2024-03-23T09:13:14;17.10;;;14.70;;
11090;SDS011;5599;52.210;21.046;2024-03-23T09:15:46;15.93;;;14.03;;
11090;SDS011;5599;52.210;21.046;2024-03-23T09:18:15;16.27;;;14.40;;
11090;SDS011;5599;52.210;21.046;2024-03-23T09:20:42;15.07;;;13.00;;
11090;SDS011;5599;52.210;21.046;2024-03-23T09:23:11;14.27;;;12.77;;
11090;SDS011;5599;52.210;21.046;2024-03-23T09:25:38;15.90;;;13.87;;
11090;SDS011;5599;52.210;21.046;2024-03-23T09:28:06;17.17;;;13.37;;
11090;SDS011;5599;52.210;21.046;2024-03-23T09:30:34;14.70;;;13.17;;
11090;SDS011;5599;52.210;21.046;2024-03-23T09:33:09;14.20;;;12.33;;
11090;SDS011;5599;52.210;21.046;2024-03-23T09:35:37;15.13;;;12.80;;
11090;SDS011;5599;52.210;21.046;2024-03-23T09:38:05;15.17;;;12.20;;
11090;SDS011;5599;52.210;21.046;2024-03-23T09:40:33;13.60;;;12.20;;
11090;SDS011;5599;52.210;21.046;2024-03-23T09:43:01;14.00;;;12.33;;
11090;SDS011;5599;52.210;21.046;2024-03-23T09:45:28;13.57;;;11.13;;
11090;SDS011;5599;52.210;21.046;2024-03-23T09:47:56;14.03;;;12.60;;
11090;SDS011;5599;52.210;21.046;2024-03-23T09:50:25;13.40;;;12.00;;
11090;SDS011;5599;52.210;21.046;2024-03-23T09:52:53;12.40;;;11.20;;
11090;SDS011;5599;52.210;21.046;2024-03-23T09:55:20;12.97;;;11.67;;
11090;SDS011;5599;52.210;21.046;2024-03-23T09:57:48;12.93;;;11.53;;
11090;SDS011;5599;52.210;21.046;2024-03-23T10:00:15;13.50;;;11.60;;
11090;SDS011;5599;52.210;21.046;2024-03-23T10:02:43;12.63;;;11.33;;
11090;SDS011;5599;52.210;21.046;2024-03-23T10:05:19;11.70;;;10.30;;
11090;SDS011;5599;52.210;21.046;2024-03-23T10:07:50;13.10;;;11.32;;
11090;SDS011;5599;52.210;21.046;2024-03-23T10:10:17;13.67;;;12.27;;
11090;SDS011;5599;52.210;21.046;2024-03-23T10:12:45;12.30;;;10.73;;
11090;SDS011;5599;52.210;21.046;2024-03-23T10:15:19;11.75;;;10.57;;
11090;SDS011;5599;52.210;21.046;2024-03-23T10:17:48;13.70;;;10.38;;
11090;SDS011;5599;52.210;21.046;2024-03-23T10:20:19;12.82;;;10.80;;
11090;SDS011;5599;52.210;21.046;2024-03-23T10:22:49;11.75;;;10.57;;
11090;SDS011;5599;52.210;21.046;2024-03-23T10:25:18;11.63;;;10.18;;
11090;SDS011;5599;52.210;21.046;2024-03-23T10:27:56;12.93;;;11.35;;
11090;SDS011;5599;52.210;21.046;2024-03-23T10:30:27;12.80;;;10.45;;
11090;SDS011;5599;52.210;21.046;2024-03-23T10:33:06;12.77;;;10.38;;
11090;SDS011;5599;52.210;21.046;2024-03-23T10:35:34;13.25;;;10.80;;
11090;SDS011;5599;52.210;21.046;2024-03-23T10:38:04;11.82;;;10.63;;
11090;SDS011;5599;52.210;21.046;2024-03-23T10:40:33;11.38;;;10.00;;
11090;SDS011;5599;52.210;21.046;2024-03-23T10:43:01;12.00;;;10.48;;
11090;SDS011;5599;52.210;21.046;2024-03-23T10:45:32;11.68;;;10.15;;
11090;SDS011;5599;52.210;21.046;2024-03-23T10:47:59;12.48;;;9.10;;
11090;SDS011;5599;52.210;21.046;2024-03-23T10:50:29;10.68;;;9.63;;
11090;SDS011;5599;52.210;21.046;2024-03-23T10:52:56;13.05;;;9.45;;
11090;SDS011;5599;52.210;21.046;2024-03-23T10:55:26;12.02;;;9.77;;
11090;SDS011;5599;52.210;21.046;2024-03-23T10:57:54;9.95;;;8.93;;
11090;SDS011;5599;52.210;21.046;2024-03-23T11:00:25;9.82;;;8.68;;
11090;SDS011;5599;52.210;21.046;2024-03-23T11:02:52;9.32;;;8.35;;
11090;SDS011;5599;52.210;21.046;2024-03-23T11:05:29;9.07;;;8.18;;
11090;SDS011;5599;52.210;21.046;2024-03-23T11:07:57;11.25;;;8.73;;
11090;SDS011;5599;52.210;21.046;2024-03-23T11:10:25;11.63;;;8.75;;
11090;SDS011;5599;52.210;21.046;2024-03-23T11:12:55;9.60;;;8.60;;
11090;SDS011;5599;52.210;21.046;2024-03-23T11:15:23;8.73;;;7.80;;
11090;SDS011;5599;52.210;21.046;2024-03-23T11:18:02;9.20;;;8.30;;
11090;SDS011;5599;52.210;21.046;2024-03-23T11:20:32;10.30;;;8.45;;
11090;SDS011;5599;52.210;21.046;2024-03-23T11:22:59;9.15;;;7.88;;
11090;SDS011;5599;52.210;21.046;2024-03-23T11:25:28;8.55;;;7.13;;
11090;SDS011;5599;52.210;21.046;2024-03-23T11:27:56;8.32;;;7.53;;
11090;SDS011;5599;52.210;21.046;2024-03-23T11:30:26;7.85;;;7.15;;
11090;SDS011;5599;52.210;21.046;2024-03-23T11:32:54;8.55;;;7.70;;
11090;SDS011;5599;52.210;21.046;2024-03-23T11:35:26;8.20;;;7.40;;
11090;SDS011;5599;52.210;21.046;2024-03-23T11:38:03;8.98;;;7.32;;
11090;SDS011;5599;52.210;21.046;2024-03-23T11:40:34;8.10;;;7.30;;
11090;SDS011;5599;52.210;21.046;2024-03-23T11:43:02;8.30;;;7.15;;
11090;SDS011;5599;52.210;21.046;2024-03-23T11:45:33;8.20;;;7.22;;
11090;SDS011;5599;52.210;21.046;2024-03-23T11:48:02;9.40;;;7.95;;
11090;SDS011;5599;52.210;21.046;2024-03-23T11:50:32;10.05;;;7.82;;
11090;SDS011;5599;52.210;21.046;2024-03-23T11:53:08;9.65;;;7.55;;
11090;SDS011;5599;52.210;21.046;2024-03-23T11:55:45;8.55;;;7.63;;
11090;SDS011;5599;52.210;21.046;2024-03-23T11:58:13;9.57;;;7.68;;
11090;SDS011;5599;52.210;21.046;2024-03-23T12:00:41;8.75;;;7.85;;
11090;SDS011;5599;52.210;21.046;2024-03-23T12:03:08;8.25;;;7.43;;
11090;SDS011;5599;52.210;21.046;2024-03-23T12:05:36;13.32;;;7.20;;
11090;SDS011;5599;52.210;21.046;2024-03-23T12:08:17;8.20;;;7.40;;
11090;SDS011;5599;52.210;21.046;2024-03-23T12:10:48;7.63;;;6.70;;
11090;SDS011;5599;52.210;21.046;2024-03-23T12:13:18;8.23;;;7.35;;
11090;SDS011;5599;52.210;21.046;2024-03-23T12:15:46;7.28;;;6.57;;
11090;SDS011;5599;52.210;21.046;2024-03-23T12:18:15;7.05;;;6.25;;
11090;SDS011;5599;52.210;21.046;2024-03-23T12:20:42;8.60;;;6.75;;
11090;SDS011;5599;52.210;21.046;2024-03-23T12:23:10;9.23;;;6.50;;
11090;SDS011;5599;52.210;21.046;2024-03-23T12:25:41;7.10;;;6.40;;
11090;SDS011;5599;52.210;21.046;2024-03-23T12:28:10;7.95;;;7.18;;
11090;SDS011;5599;52.210;21.046;2024-03-23T12:30:38;7.45;;;6.75;;
11090;SDS011;5599;52.210;21.046;2024-03-23T12:33:07;7.70;;;6.90;;
11090;SDS011;5599;52.210;21.046;2024-03-23T12:35:33;8.73;;;7.82;;
11090;SDS011;5599;52.210;21.046;2024-03-23T12:38:01;7.95;;;6.18;;
11090;SDS011;5599;52.210;21.046;2024-03-23T12:40:28;7.35;;;6.65;;
11090;SDS011;5599;52.210;21.046;2024-03-23T12:42:56;8.05;;;7.25;;
11090;SDS011;5599;52.210;21.046;2024-03-23T12:45:24;7.55;;;6.75;;
11090;SDS011;5599;52.210;21.046;2024-03-23T12:47:52;11.80;;;7.22;;
11090;SDS011;5599;52.210;21.046;2024-03-23T12:50:19;10.30;;;7.18;;
11090;SDS011;5599;52.210;21.046;2024-03-23T12:52:47;8.35;;;6.40;;
11090;SDS011;5599;52.210;21.046;2024-03-23T12:55:14;8.48;;;7.32;;
11090;SDS011;5599;52.210;21.046;2024-03-23T12:57:42;17.00;;;12.70;;
11090;SDS011;5599;52.210;21.046;2024-03-23T13:00:09;11.48;;;9.95;;
11090;SDS011;5599;52.210;21.046;2024-03-23T13:02:40;10.15;;;8.15;;
11090;SDS011;5599;52.210;21.046;2024-03-23T13:05:07;8.20;;;7.40;;
11090;SDS011;5599;52.210;21.046;2024-03-23T13:07:35;8.55;;;7.28;;
11090;SDS011;5599;52.210;21.046;2024-03-23T13:10:04;10.10;;;7.22;;
11090;SDS011;5599;52.210;21.046;2024-03-23T13:12:32;8.93;;;8.02;;
11090;SDS011;5599;52.210;21.046;2024-03-23T13:14:59;7.43;;;6.60;;
11090;SDS011;5599;52.210;21.046;2024-03-23T13:17:29;8.68;;;7.80;;
11090;SDS011;5599;52.210;21.046;2024-03-23T13:19:57;7.40;;;6.57;;
11090;SDS011;5599;52.210;21.046;2024-03-23T13:22:25;8.45;;;6.95;;
11090;SDS011;5599;52.210;21.046;2024-03-23T13:24:51;8.00;;;6.68;;
11090;SDS011;5599;52.210;21.046;2024-03-23T13:27:19;9.93;;;6.90;;
11090;SDS011;5599;52.210;21.046;2024-03-23T13:29:46;7.25;;;6.35;;
11090;SDS011;5599;52.210;21.046;2024-03-23T13:32:14;7.43;;;6.68;;
11090;SDS011;5599;52.210;21.046;2024-03-23T13:34:40;8.55;;;6.40;;
11090;SDS011;5599;52.210;21.046;2024-03-23T13:37:10;8.48;;;6.95;;
11090;SDS011;5599;52.210;21.046;2024-03-23T13:39:36;8.10;;;6.53;;
11090;SDS011;5599;52.210;21.046;2024-03-23T13:42:04;6.95;;;6.25;;
11090;SDS011;5599;52.210;21.046;2024-03-23T13:44:31;9.40;;;6.47;;
11090;SDS011;5599;52.210;21.046;2024-03-23T13:46:59;7.25;;;6.25;;
11090;SDS011;5599;52.210;21.046;2024-03-23T13:49:27;8.52;;;6.53;;
11090;SDS011;5599;52.210;21.046;2024-03-23T13:51:56;8.40;;;5.85;;
11090;SDS011;5599;52.210;21.046;2024-03-23T13:54:25;7.80;;;5.97;;
11090;SDS011;5599;52.210;21.046;2024-03-23T13:56:54;9.88;;;6.38;;
11090;SDS011;5599;52.210;21.046;2024-03-23T13:59:21;8.77;;;6.22;;
11090;SDS011;5599;52.210;21.046;2024-03-23T14:01:50;7.30;;;6.55;;
11090;SDS011;5599;52.210;21.046;2024-03-23T14:04:17;8.20;;;6.55;;
11090;SDS011;5599;52.210;21.046;2024-03-23T14:06:46;7.63;;;6.03;;
11090;SDS011;5599;52.210;21.046;2024-03-23T14:09:13;11.05;;;6.10;;
11090;SDS011;5599;52.210;21.046;2024-03-23T14:11:48;10.52;;;7.18;;
11090;SDS011;5599;52.210;21.046;2024-03-23T14:14:16;9.23;;;6.30;;
11090;SDS011;5599;52.210;21.046;2024-03-23T14:16:44;11.82;;;6.78;;
11090;SDS011;5599;52.210;21.046;2024-03-23T14:19:11;9.88;;;6.35;;
11090;SDS011;5599;52.210;21.046;2024-03-23T14:21:39;10.00;;;6.43;;
11090;SDS011;5599;52.210;21.046;2024-03-23T14:24:06;6.60;;;5.97;;
11090;SDS011;5599;52.210;21.046;2024-03-23T14:26:35;9.00;;;6.30;;
11090;SDS011;5599;52.210;21.046;2024-03-23T14:29:03;7.60;;;6.65;;
11090;SDS011;5599;52.210;21.046;2024-03-23T14:31:31;8.30;;;6.00;;
11090;SDS011;5599;52.210;21.046;2024-03-23T14:33:58;7.43;;;6.60;;
11090;SDS011;5599;52.210;21.046;2024-03-23T14:36:26;7.05;;;6.05;;
11090;SDS011;5599;52.210;21.046;2024-03-23T14:38:53;7.47;;;6.63;;
11090;SDS011;5599;52.210;21.046;2024-03-23T14:41:21;8.05;;;6.40;;
11090;SDS011;5599;52.210;21.046;2024-03-23T14:43:48;6.97;;;6.32;;
11090;SDS011;5599;52.210;21.046;2024-03-23T14:46:18;7.35;;;6.65;;
11090;SDS011;5599;52.210;21.046;2024-03-23T14:48:45;6.97;;;6.30;;
11090;SDS011;5599;52.210;21.046;2024-03-23T14:51:13;7.80;;;6.63;;
11090;SDS011;5599;52.210;21.046;2024-03-23T14:53:40;6.47;;;5.80;;
11090;SDS011;5599;52.210;21.046;2024-03-23T14:56:12;7.35;;;6.00;;
11090;SDS011;5599;52.210;21.046;2024-03-23T14:58:41;7.32;;;6.63;;
11090;SDS011;5599;52.210;21.046;2024-03-23T15:01:11;9.13;;;6.80;;
11090;SDS011;5599;52.210;21.046;2024-03-23T15:03:39;9.20;;;7.32;;
11090;SDS011;5599;52.210;21.046;2024-03-23T15:06:08;11.63;;;6.97;;
11090;SDS011;5599;52.210;21.046;2024-03-23T15:08:36;10.25;;;8.05;;
11090;SDS011;5599;52.210;21.046;2024-03-23T15:11:06;10.00;;;8.13;;
11090;SDS011;5599;52.210;21.046;2024-03-23T15:13:33;8.48;;;7.53;;
11090;SDS011;5599;52.210;21.046;2024-03-23T15:16:00;10.32;;;8.43;;
11090;SDS011;5599;52.210;21.046;2024-03-23T15:18:29;9.27;;;8.20;;
11090;SDS011;5599;52.210;21.046;2024-03-23T15:20:59;9.80;;;8.23;;
11090;SDS011;5599;52.210;21.046;2024-03-23T15:23:28;10.30;;;9.13;;
11090;SDS011;5599;52.210;21.046;2024-03-23T15:25:56;9.50;;;8.60;;
11090;SDS011;5599;52.210;21.046;2024-03-23T15:28:23;10.53;;;9.47;;